sensor_id;sensor_type;location;lat;lon;timestamp;pressure;altitude;pressure_sealevel;temperature;humidity
55466;BME280;41329;41.594;23.810;2022-11-28T00:01:47;95740.13;;;5.51;68.85
55466;BME280;41329;41.594;23.810;2022-11-28T00:04:13;95736.75;;;5.46;68.95
55466;BME280;41329;41.594;23.810;2022-11-28T00:06:42;95736.97;;;5.32;69.25
55466;BME280;41329;41.594;23.810;2022-11-28T00:09:13;95722.16;;;5.25;69.41
55466;BME280;41329;41.594;23.810;2022-11-28T00:11:41;95739.53;;;5.37;69.39
55466;BME280;41329;41.594;23.810;2022-11-28T00:14:06;95734.22;;;5.32;69.53
55466;BME280;41329;41.594;23.810;2022-11-28T00:16:32;95729.56;;;5.33;69.61
55466;BME280;41329;41.594;23.810;2022-11-28T00:18:59;95738.09;;;5.40;69.19
55466;BME280;41329;41.594;23.810;2022-11-28T00:21:25;95745.81;;;5.38;69.19
55466;BME280;41329;41.594;23.810;2022-11-28T00:23:51;95696.91;;;5.02;69.44
55466;BME280;41329;41.594;23.810;2022-11-28T00:26:27;95751.19;;;5.34;69.36
55466;BME280;41329;41.594;23.810;2022-11-28T00:28:54;95746.34;;;5.31;69.76
55466;BME280;41329;41.594;23.810;2022-11-28T00:31:23;95691.16;;;4.87;69.74
55466;BME280;41329;41.594;23.810;2022-11-28T00:33:48;95707.06;;;5.02;69.81
55466;BME280;41329;41.594;23.810;2022-11-28T00:36:14;95733.97;;;5.17;69.96
55466;BME280;41329;41.594;23.810;2022-11-28T00:38:40;95746.97;;;5.28;69.87
55466;BME280;41329;41.594;23.810;2022-11-28T00:41:10;95742.63;;;5.27;69.81
55466;BME280;41329;41.594;23.810;2022-11-28T00:43:38;95744.25;;;5.28;69.64
55466;BME280;41329;41.594;23.810;2022-11-28T00:46:05;95746.34;;;5.31;69.79
55466;BME280;41329;41.594;23.810;2022-11-28T00:48:32;95749.22;;;5.35;69.91
55466;BME280;41329;41.594;23.810;2022-11-28T00:51:08;95724.44;;;5.23;69.84
55466;BME280;41329;41.594;23.810;2022-11-28T00:53:35;95741.03;;;5.26;69.94
55466;BME280;41329;41.594;23.810;2022-11-28T00:56:05;95733.97;;;5.17;69.91
55466;BME280;41329;41.594;23.810;2022-11-28T00:58:32;95740.22;;;5.26;70.05
55466;BME280;41329;41.594;23.810;2022-11-28T01:00:59;95735.75;;;5.21;70.07
55466;BME280;41329;41.594;23.810;2022-11-28T01:03:24;95734.72;;;5.26;70.27
55466;BME280;41329;41.594;23.810;2022-11-28T01:05:50;95743.47;;;5.28;70.27
55466;BME280;41329;41.594;23.810;2022-11-28T01:08:15;95737.66;;;5.29;70.30
55466;BME280;41329;41.594;23.810;2022-11-28T01:10:43;95738.44;;;5.30;70.44
55466;BME280;41329;41.594;23.810;2022-11-28T01:13:09;95739.38;;;5.34;70.34
55466;BME280;41329;41.594;23.810;2022-11-28T01:15:35;95732.44;;;5.36;70.31
55466;BME280;41329;41.594;23.810;2022-11-28T01:18:01;95734.38;;;5.36;70.20
55466;BME280;41329;41.594;23.810;2022-11-28T01:20:27;95717.94;;;5.27;70.36
55466;BME280;41329;41.594;23.810;2022-11-28T01:22:53;95721.97;;;5.30;70.37
55466;BME280;41329;41.594;23.810;2022-11-28T01:25:18;95719.41;;;5.25;70.50
55466;BME280;41329;41.594;23.810;2022-11-28T01:27:44;95717.13;;;5.27;70.55
55466;BME280;41329;41.594;23.810;2022-11-28T01:30:09;95716.50;;;5.30;70.26
55466;BME280;41329;41.594;23.810;2022-11-28T01:32:35;95713.28;;;5.28;70.30
55466;BME280;41329;41.594;23.810;2022-11-28T01:35:00;95705.38;;;5.26;70.46
55466;BME280;41329;41.594;23.810;2022-11-28T01:37:28;95701.50;;;5.27;70.30
55466;BME280;41329;41.594;23.810;2022-11-28T01:39:54;95684.72;;;5.20;70.30
55466;BME280;41329;41.594;23.810;2022-11-28T01:42:19;95683.56;;;5.30;70.27
55466;BME280;41329;41.594;23.810;2022-11-28T01:47:27;95698.94;;;5.22;70.22
55466;BME280;41329;41.594;23.810;2022-11-28T01:49:55;95698.75;;;5.27;70.56
55466;BME280;41329;41.594;23.810;2022-11-28T01:52:20;95693.75;;;5.29;70.57
55466;BME280;41329;41.594;23.810;2022-11-28T01:54:52;95679.25;;;5.20;70.58
55466;BME280;41329;41.594;23.810;2022-11-28T01:57:21;95683.38;;;5.35;70.41
55466;BME280;41329;41.594;23.810;2022-11-28T02:00:09;95685.59;;;5.41;70.35
55466;BME280;41329;41.594;23.810;2022-11-28T02:02:41;95673.84;;;5.41;70.33
55466;BME280;41329;41.594;23.810;2022-11-28T02:05:08;95685.91;;;5.48;70.19
55466;BME280;41329;41.594;23.810;2022-11-28T02:07:34;95682.69;;;5.46;70.17
55466;BME280;41329;41.594;23.810;2022-11-28T02:10:01;95681.69;;;5.51;70.14
55466;BME280;41329;41.594;23.810;2022-11-28T02:18:08;95673.09;;;5.61;69.89
55466;BME280;41329;41.594;23.810;2022-11-28T02:33:37;95659.16;;;5.66;69.46
55466;BME280;41329;41.594;23.810;2022-11-28T02:36:12;95658.41;;;5.57;69.79
55466;BME280;41329;41.594;23.810;2022-11-28T02:41:30;95654.72;;;5.53;69.70
55466;BME280;41329;41.594;23.810;2022-11-28T02:44:10;95667.72;;;5.64;69.52
55466;BME280;41329;41.594;23.810;2022-11-28T02:47:02;95668.66;;;5.68;69.58
55466;BME280;41329;41.594;23.810;2022-11-28T02:49:35;95652.53;;;5.67;69.41
55466;BME280;41329;41.594;23.810;2022-11-28T02:52:08;95665.31;;;5.63;69.82
55466;BME280;41329;41.594;23.810;2022-11-28T02:54:35;95670.59;;;5.68;69.61
55466;BME280;41329;41.594;23.810;2022-11-28T02:57:03;95655.28;;;5.67;69.47
55466;BME280;41329;41.594;23.810;2022-11-28T03:02:16;95657.03;;;5.71;69.49
55466;BME280;41329;41.594;23.810;2022-11-28T03:08:15;95658.75;;;5.76;69.74
55466;BME280;41329;41.594;23.810;2022-11-28T03:16:13;95650.41;;;5.72;69.81
55466;BME280;41329;41.594;23.810;2022-11-28T03:19:26;95656.34;;;5.74;69.76
55466;BME280;41329;41.594;23.810;2022-11-28T03:24:33;95649.78;;;5.67;69.68
55466;BME280;41329;41.594;23.810;2022-11-28T03:29:45;95653.34;;;5.67;69.71
55466;BME280;41329;41.594;23.810;2022-11-28T03:32:17;95648.97;;;5.66;70.12
55466;BME280;41329;41.594;23.810;2022-11-28T03:34:48;95651.06;;;5.69;69.88
55466;BME280;41329;41.594;23.810;2022-11-28T03:37:20;95642.69;;;5.66;69.80
55466;BME280;41329;41.594;23.810;2022-11-28T03:39:51;95653.47;;;5.71;69.30
55466;BME280;41329;41.594;23.810;2022-11-28T03:42:23;95626.25;;;5.57;69.61
55466;BME280;41329;41.594;23.810;2022-11-28T03:47:28;95594.47;;;5.36;69.64
55466;BME280;41329;41.594;23.810;2022-11-28T03:49:55;95649.13;;;5.70;69.73
55466;BME280;41329;41.594;23.810;2022-11-28T03:52:28;95639.13;;;5.65;69.47
55466;BME280;41329;41.594;23.810;2022-11-28T03:55:03;95638.81;;;5.67;69.50
55466;BME280;41329;41.594;23.810;2022-11-28T04:00:09;95644.16;;;5.63;69.42
55466;BME280;41329;41.594;23.810;2022-11-28T04:05:17;95658.84;;;5.67;69.28
55466;BME280;41329;41.594;23.810;2022-11-28T04:10:32;95650.13;;;5.65;69.35
55466;BME280;41329;41.594;23.810;2022-11-28T04:13:21;95630.34;;;5.51;69.56
55466;BME280;41329;41.594;23.810;2022-11-28T04:15:58;95658.25;;;5.53;69.74
55466;BME280;41329;41.594;23.810;2022-11-28T04:18:29;95650.13;;;5.36;70.28
55466;BME280;41329;41.594;23.810;2022-11-28T04:21:12;95634.81;;;5.35;70.30
55466;BME280;41329;41.594;23.810;2022-11-28T04:23:41;95639.16;;;5.36;70.25
55466;BME280;41329;41.594;23.810;2022-11-28T04:26:13;95657.56;;;5.36;70.55
55466;BME280;41329;41.594;23.810;2022-11-28T04:28:42;95648.06;;;5.33;70.58
55466;BME280;41329;41.594;23.810;2022-11-28T04:31:10;95661.25;;;5.40;70.65
55466;BME280;41329;41.594;23.810;2022-11-28T04:33:39;95669.09;;;5.50;70.48
55466;BME280;41329;41.594;23.810;2022-11-28T04:36:09;95650.94;;;5.37;70.44
55466;BME280;41329;41.594;23.810;2022-11-28T04:38:37;95667.63;;;5.52;70.67
55466;BME280;41329;41.594;23.810;2022-11-28T04:41:06;95672.16;;;5.57;70.50
55466;BME280;41329;41.594;23.810;2022-11-28T04:43:44;95645.88;;;5.47;70.35
55466;BME280;41329;41.594;23.810;2022-11-28T04:46:20;95664.84;;;5.61;70.20
55466;BME280;41329;41.594;23.810;2022-11-28T04:48:49;95665.19;;;5.59;70.08
55466;BME280;41329;41.594;23.810;2022-11-28T04:51:26;95645.47;;;5.57;70.07
55466;BME280;41329;41.594;23.810;2022-11-28T04:53:59;95652.84;;;5.65;70.38
55466;BME280;41329;41.594;23.810;2022-11-28T04:56:35;95646.81;;;5.51;70.05
55466;BME280;41329;41.594;23.810;2022-11-28T04:59:03;95632.63;;;5.49;70.19
55466;BME280;41329;41.594;23.810;2022-11-28T05:01:30;95644.81;;;5.60;70.17
55466;BME280;41329;41.594;23.810;2022-11-28T05:03:58;95632.78;;;5.53;70.03
55466;BME280;41329;41.594;23.810;2022-11-28T05:06:26;95652.41;;;5.63;69.94
55466;BME280;41329;41.594;23.810;2022-11-28T05:08:51;95644.28;;;5.67;70.17
55466;BME280;41329;41.594;23.810;2022-11-28T05:11:17;95630.97;;;5.57;70.35
55466;BME280;41329;41.594;23.810;2022-11-28T05:13:42;95650.25;;;5.69;70.46
55466;BME280;41329;41.594;23.810;2022-11-28T05:16:10;95655.84;;;5.52;70.49
55466;BME280;41329;41.594;23.810;2022-11-28T05:18:37;95639.13;;;5.45;70.02
55466;BME280;41329;41.594;23.810;2022-11-28T05:21:03;95633.44;;;5.50;70.27
55466;BME280;41329;41.594;23.810;2022-11-28T05:23:32;95643.31;;;5.42;70.26
55466;BME280;41329;41.594;23.810;2022-11-28T05:25:57;95642.66;;;5.45;70.25
55466;BME280;41329;41.594;23.810;2022-11-28T05:28:23;95645.06;;;5.47;70.45
55466;BME280;41329;41.594;23.810;2022-11-28T05:30:59;95658.06;;;5.58;70.48
55466;BME280;41329;41.594;23.810;2022-11-28T05:33:24;95632.16;;;5.47;70.55
55466;BME280;41329;41.594;23.810;2022-11-28T05:35:50;95647.09;;;5.58;70.70
55466;BME280;41329;41.594;23.810;2022-11-28T05:38:15;95656.94;;;5.59;70.65
55466;BME280;41329;41.594;23.810;2022-11-28T05:40:41;95650.31;;;5.60;70.73
55466;BME280;41329;41.594;23.810;2022-11-28T05:43:11;95656.75;;;5.64;70.87
55466;BME280;41329;41.594;23.810;2022-11-28T05:45:43;95649.66;;;5.63;70.87
55466;BME280;41329;41.594;23.810;2022-11-28T05:48:09;95648.50;;;5.64;70.56
55466;BME280;41329;41.594;23.810;2022-11-28T05:50:38;95645.97;;;5.59;70.00
55466;BME280;41329;41.594;23.810;2022-11-28T05:53:04;95649.66;;;5.63;70.36
55466;BME280;41329;41.594;23.810;2022-11-28T05:55:29;95653.19;;;5.64;70.53
55466;BME280;41329;41.594;23.810;2022-11-28T05:57:55;95630.16;;;5.56;70.98
55466;BME280;41329;41.594;23.810;2022-11-28T06:00:21;95644.63;;;5.65;70.98
55466;BME280;41329;41.594;23.810;2022-11-28T06:02:46;95630.78;;;5.62;71.24
55466;BME280;41329;41.594;23.810;2022-11-28T06:05:12;95639.75;;;5.71;71.24
55466;BME280;41329;41.594;23.810;2022-11-28T06:07:37;95648.09;;;5.74;71.22
55466;BME280;41329;41.594;23.810;2022-11-28T06:10:03;95629.31;;;5.64;71.21
55466;BME280;41329;41.594;23.810;2022-11-28T06:12:29;95623.31;;;5.62;70.82
55466;BME280;41329;41.594;23.810;2022-11-28T06:14:54;95652.94;;;5.77;70.95
55466;BME280;41329;41.594;23.810;2022-11-28T06:17:19;95630.44;;;5.63;71.01
55466;BME280;41329;41.594;23.810;2022-11-28T06:19:45;95655.34;;;5.79;71.43
55466;BME280;41329;41.594;23.810;2022-11-28T06:22:10;95661.63;;;5.79;71.22
55466;BME280;41329;41.594;23.810;2022-11-28T06:24:36;95659.09;;;5.83;71.30
55466;BME280;41329;41.594;23.810;2022-11-28T06:27:01;95653.09;;;5.81;70.98
55466;BME280;41329;41.594;23.810;2022-11-28T06:29:27;95654.38;;;5.83;71.33
55466;BME280;41329;41.594;23.810;2022-11-28T06:31:52;95638.28;;;5.73;71.48
55466;BME280;41329;41.594;23.810;2022-11-28T06:34:20;95638.41;;;5.77;71.52
55466;BME280;41329;41.594;23.810;2022-11-28T06:36:46;95636.94;;;5.79;71.76
55466;BME280;41329;41.594;23.810;2022-11-28T06:39:15;95648.34;;;5.90;71.77
55466;BME280;41329;41.594;23.810;2022-11-28T06:41:42;95641.25;;;5.89;71.65
55466;BME280;41329;41.594;23.810;2022-11-28T06:44:11;95648.03;;;5.91;71.69
55466;BME280;41329;41.594;23.810;2022-11-28T06:46:37;95632.69;;;5.90;71.79
55466;BME280;41329;41.594;23.810;2022-11-28T06:49:02;95638.66;;;5.92;71.35
55466;BME280;41329;41.594;23.810;2022-11-28T06:51:28;95627.41;;;5.85;71.30
55466;BME280;41329;41.594;23.810;2022-11-28T06:53:54;95639.59;;;5.96;71.55
55466;BME280;41329;41.594;23.810;2022-11-28T06:56:20;95642.94;;;6.02;71.64
55466;BME280;41329;41.594;23.810;2022-11-28T06:58:46;95633.09;;;6.01;71.41
55466;BME280;41329;41.594;23.810;2022-11-28T07:01:15;95637.91;;;6.04;71.55
55466;BME280;41329;41.594;23.810;2022-11-28T07:03:41;95636.78;;;6.05;71.79
55466;BME280;41329;41.594;23.810;2022-11-28T07:06:08;95613.75;;;5.97;71.85
55466;BME280;41329;41.594;23.810;2022-11-28T07:08:34;95634.63;;;6.10;71.78
55466;BME280;41329;41.594;23.810;2022-11-28T07:11:27;95638.31;;;6.14;72.01
55466;BME280;41329;41.594;23.810;2022-11-28T07:13:54;95638.78;;;6.16;71.64
55466;BME280;41329;41.594;23.810;2022-11-28T07:16:25;95625.72;;;6.13;71.52
55466;BME280;41329;41.594;23.810;2022-11-28T07:18:51;95627.78;;;6.16;71.27
55466;BME280;41329;41.594;23.810;2022-11-28T07:21:18;95628.06;;;6.23;71.46
55466;BME280;41329;41.594;23.810;2022-11-28T07:23:43;95634.81;;;6.26;71.56
55466;BME280;41329;41.594;23.810;2022-11-28T07:26:11;95619.59;;;6.28;71.38
55466;BME280;41329;41.594;23.810;2022-11-28T07:28:37;95617.50;;;6.25;71.41
55466;BME280;41329;41.594;23.810;2022-11-28T07:31:08;95602.06;;;6.21;71.56
55466;BME280;41329;41.594;23.810;2022-11-28T07:33:39;95629.03;;;6.39;71.84
55466;BME280;41329;41.594;23.810;2022-11-28T07:36:07;95626.06;;;6.44;71.74
55466;BME280;41329;41.594;23.810;2022-11-28T07:38:34;95602.09;;;6.33;71.91
55466;BME280;41329;41.594;23.810;2022-11-28T07:41:10;95623.09;;;6.49;71.96
55466;BME280;41329;41.594;23.810;2022-11-28T07:43:36;95615.78;;;6.53;71.89
55466;BME280;41329;41.594;23.810;2022-11-28T07:46:06;95569.88;;;6.21;71.63
55466;BME280;41329;41.594;23.810;2022-11-28T07:48:32;95621.88;;;6.59;71.60
55466;BME280;41329;41.594;23.810;2022-11-28T07:50:58;95627.16;;;6.64;71.42
55466;BME280;41329;41.594;23.810;2022-11-28T07:53:24;95606.06;;;6.56;71.08
55466;BME280;41329;41.594;23.810;2022-11-28T07:55:49;95618.69;;;6.69;70.51
55466;BME280;41329;41.594;23.810;2022-11-28T07:58:15;95624.06;;;6.66;69.86
55466;BME280;41329;41.594;23.810;2022-11-28T08:00:40;95619.56;;;6.61;69.95
55466;BME280;41329;41.594;23.810;2022-11-28T08:03:05;95624.91;;;6.45;70.15
55466;BME280;41329;41.594;23.810;2022-11-28T08:05:32;95613.59;;;6.47;69.96
55466;BME280;41329;41.594;23.810;2022-11-28T08:07:57;95621.50;;;6.48;70.31
55466;BME280;41329;41.594;23.810;2022-11-28T08:10:23;95616.59;;;6.54;70.47
55466;BME280;41329;41.594;23.810;2022-11-28T08:12:48;95604.91;;;6.45;70.21
55466;BME280;41329;41.594;23.810;2022-11-28T08:15:14;95605.22;;;6.43;69.86
55466;BME280;41329;41.594;23.810;2022-11-28T08:17:39;95611.09;;;6.54;69.48
55466;BME280;41329;41.594;23.810;2022-11-28T08:20:05;95617.50;;;6.46;69.56
55466;BME280;41329;41.594;23.810;2022-11-28T08:22:31;95620.06;;;6.30;69.69
55466;BME280;41329;41.594;23.810;2022-11-28T08:24:56;95615.84;;;6.33;70.22
55466;BME280;41329;41.594;23.810;2022-11-28T08:27:22;95624.00;;;6.41;70.36
55466;BME280;41329;41.594;23.810;2022-11-28T08:29:47;95602.56;;;6.35;70.47
55466;BME280;41329;41.594;23.810;2022-11-28T08:32:13;95609.69;;;6.48;70.52
55466;BME280;41329;41.594;23.810;2022-11-28T08:34:38;95628.72;;;6.53;70.71
55466;BME280;41329;41.594;23.810;2022-11-28T08:37:04;95617.28;;;6.51;70.40
55466;BME280;41329;41.594;23.810;2022-11-28T08:39:29;95624.38;;;6.52;70.19
55466;BME280;41329;41.594;23.810;2022-11-28T08:41:55;95617.88;;;6.57;70.72
55466;BME280;41329;41.594;23.810;2022-11-28T08:44:27;95608.47;;;6.25;70.55
55466;BME280;41329;41.594;23.810;2022-11-28T08:46:53;95594.31;;;6.02;71.58
55466;BME280;41329;41.594;23.810;2022-11-28T08:49:18;95597.16;;;6.26;71.36
55466;BME280;41329;41.594;23.810;2022-11-28T08:51:44;95598.88;;;6.31;71.53
55466;BME280;41329;41.594;23.810;2022-11-28T08:54:10;95604.41;;;6.43;71.38
55466;BME280;41329;41.594;23.810;2022-11-28T08:56:35;95596.28;;;6.46;71.36
55466;BME280;41329;41.594;23.810;2022-11-28T08:59:01;95586.09;;;6.47;70.93
55466;BME280;41329;41.594;23.810;2022-11-28T09:01:28;95588.06;;;6.58;71.27
55466;BME280;41329;41.594;23.810;2022-11-28T09:03:54;95588.06;;;6.58;71.44
55466;BME280;41329;41.594;23.810;2022-11-28T09:06:20;95585.59;;;6.66;71.49
55466;BME280;41329;41.594;23.810;2022-11-28T09:08:47;95589.38;;;6.73;71.50
55466;BME280;41329;41.594;23.810;2022-11-28T09:11:15;95585.94;;;6.76;71.76
55466;BME280;41329;41.594;23.810;2022-11-28T09:13:41;95576.31;;;6.82;71.72
55466;BME280;41329;41.594;23.810;2022-11-28T09:16:07;95574.16;;;6.88;71.83
55466;BME280;41329;41.594;23.810;2022-11-28T09:18:33;95569.56;;;6.80;71.58
55466;BME280;41329;41.594;23.810;2022-11-28T09:21:09;95560.41;;;6.88;71.47
55466;BME280;41329;41.594;23.810;2022-11-28T09:23:36;95554.91;;;6.88;71.42
55466;BME280;41329;41.594;23.810;2022-11-28T09:26:39;95553.06;;;6.92;71.15
55466;BME280;41329;41.594;23.810;2022-11-28T09:28:58;95541.63;;;6.90;71.46
55466;BME280;41329;41.594;23.810;2022-11-28T09:31:23;95543.09;;;6.99;71.36
55466;BME280;41329;41.594;23.810;2022-11-28T09:33:49;95537.13;;;6.85;71.22
55466;BME280;41329;41.594;23.810;2022-11-28T09:36:20;95553.53;;;6.94;71.01
55466;BME280;41329;41.594;23.810;2022-11-28T09:38:45;95551.00;;;7.01;70.71
55466;BME280;41329;41.594;23.810;2022-11-28T09:41:31;95546.41;;;6.93;70.94
55466;BME280;41329;41.594;23.810;2022-11-28T09:44:07;95522.47;;;6.81;70.57
55466;BME280;41329;41.594;23.810;2022-11-28T09:46:35;95536.81;;;6.87;69.65
55466;BME280;41329;41.594;23.810;2022-11-28T09:51:53;95521.66;;;6.93;70.53
55466;BME280;41329;41.594;23.810;2022-11-28T09:54:24;95523.97;;;7.03;70.14
55466;BME280;41329;41.594;23.810;2022-11-28T09:56:54;95516.75;;;7.10;70.02
55466;BME280;41329;41.594;23.810;2022-11-28T09:59:29;95512.81;;;7.11;69.22
55466;BME280;41329;41.594;23.810;2022-11-28T10:02:05;95457.03;;;6.87;69.80
55466;BME280;41329;41.594;23.810;2022-11-28T10:13:06;95483.84;;;7.53;69.85
55466;BME280;41329;41.594;23.810;2022-11-28T10:20:48;95477.28;;;7.70;69.29
55466;BME280;41329;41.594;23.810;2022-11-28T10:23:30;95476.13;;;7.71;68.48
55466;BME280;41329;41.594;23.810;2022-11-28T10:26:06;95476.41;;;7.81;67.58
55466;BME280;41329;41.594;23.810;2022-11-28T10:28:37;95470.56;;;7.83;67.41
55466;BME280;41329;41.594;23.810;2022-11-28T10:31:11;95484.03;;;7.72;65.53
55466;BME280;41329;41.594;23.810;2022-11-28T10:36:29;95465.44;;;7.30;66.02
55466;BME280;41329;41.594;23.810;2022-11-28T10:39:00;95465.44;;;7.30;66.41
55466;BME280;41329;41.594;23.810;2022-11-28T10:41:36;95465.00;;;7.28;65.85
55466;BME280;41329;41.594;23.810;2022-11-28T10:44:18;95457.75;;;7.35;65.97
55466;BME280;41329;41.594;23.810;2022-11-28T10:47:11;95462.22;;;7.40;66.15
55466;BME280;41329;41.594;23.810;2022-11-28T10:52:23;95442.25;;;7.43;66.95
55466;BME280;41329;41.594;23.810;2022-11-28T11:00:14;95447.97;;;7.77;66.22
55466;BME280;41329;41.594;23.810;2022-11-28T11:02:47;95445.88;;;7.59;63.34
55466;BME280;41329;41.594;23.810;2022-11-28T11:05:19;95417.59;;;7.46;64.97
55466;BME280;41329;41.594;23.810;2022-11-28T11:07:49;95439.06;;;7.68;65.36
55466;BME280;41329;41.594;23.810;2022-11-28T11:10:18;95422.81;;;7.63;65.37
55466;BME280;41329;41.594;23.810;2022-11-28T11:12:45;95425.13;;;7.77;64.97
55466;BME280;41329;41.594;23.810;2022-11-28T11:15:23;95363.06;;;7.52;65.04
55466;BME280;41329;41.594;23.810;2022-11-28T11:17:58;95421.75;;;7.83;62.71
55466;BME280;41329;41.594;23.810;2022-11-28T11:23:01;95421.47;;;7.73;63.68
55466;BME280;41329;41.594;23.810;2022-11-28T11:25:30;95426.50;;;7.83;64.22
55466;BME280;41329;41.594;23.810;2022-11-28T11:27:58;95407.72;;;7.73;63.13
55466;BME280;41329;41.594;23.810;2022-11-28T11:30:30;95423.66;;;7.79;63.57
55466;BME280;41329;41.594;23.810;2022-11-28T11:32:57;95417.63;;;7.89;63.77
55466;BME280;41329;41.594;23.810;2022-11-28T11:35:26;95423.81;;;7.86;63.71
55466;BME280;41329;41.594;23.810;2022-11-28T11:37:52;95407.22;;;7.83;62.79
55466;BME280;41329;41.594;23.810;2022-11-28T11:42:57;95421.09;;;8.02;62.62
55466;BME280;41329;41.594;23.810;2022-11-28T11:45:33;95415.25;;;8.19;64.70
55466;BME280;41329;41.594;23.810;2022-11-28T11:48:00;95417.69;;;8.36;64.66
55466;BME280;41329;41.594;23.810;2022-11-28T11:50:30;95403.19;;;8.39;63.28
55466;BME280;41329;41.594;23.810;2022-11-28T11:53:01;95410.69;;;8.38;61.24
55466;BME280;41329;41.594;23.810;2022-11-28T11:55:28;95420.44;;;8.36;60.75
55466;BME280;41329;41.594;23.810;2022-11-28T11:57:56;95402.59;;;8.30;61.69
55466;BME280;41329;41.594;23.810;2022-11-28T12:00:30;95400.16;;;8.44;61.93
55466;BME280;41329;41.594;23.810;2022-11-28T12:03:04;95405.50;;;8.52;61.87
55466;BME280;41329;41.594;23.810;2022-11-28T12:05:49;95396.69;;;8.62;61.67
55466;BME280;41329;41.594;23.810;2022-11-28T12:08:41;95400.16;;;8.75;61.72
55466;BME280;41329;41.594;23.810;2022-11-28T12:11:16;95394.53;;;8.71;62.23
55466;BME280;41329;41.594;23.810;2022-11-28T12:13:44;95399.41;;;8.78;61.11
55466;BME280;41329;41.594;23.810;2022-11-28T12:24:10;95401.31;;;8.58;61.89
55466;BME280;41329;41.594;23.810;2022-11-28T12:27:05;95409.13;;;8.72;61.76
55466;BME280;41329;41.594;23.810;2022-11-28T12:32:17;95408.44;;;8.75;62.13
55466;BME280;41329;41.594;23.810;2022-11-28T12:35:10;95385.03;;;8.69;62.66
55466;BME280;41329;41.594;23.810;2022-11-28T12:40:34;95384.59;;;8.67;61.77
55466;BME280;41329;41.594;23.810;2022-11-28T12:43:09;95379.72;;;8.60;61.47
55466;BME280;41329;41.594;23.810;2022-11-28T12:45:47;95383.28;;;8.45;61.55
55466;BME280;41329;41.594;23.810;2022-11-28T12:51:45;95400.94;;;8.13;62.17
55466;BME280;41329;41.594;23.810;2022-11-28T13:02:38;95390.66;;;8.41;64.54
55466;BME280;41329;41.594;23.810;2022-11-28T13:13:33;95389.56;;;8.61;64.61
55466;BME280;41329;41.594;23.810;2022-11-28T13:18:42;95389.22;;;8.63;63.83
55466;BME280;41329;41.594;23.810;2022-11-28T13:24:22;95391.97;;;8.63;63.77
55466;BME280;41329;41.594;23.810;2022-11-28T13:27:08;95382.81;;;8.59;63.31
55466;BME280;41329;41.594;23.810;2022-11-28T13:29:46;95405.06;;;8.35;63.30
55466;BME280;41329;41.594;23.810;2022-11-28T13:34:46;95393.88;;;8.43;63.72
55466;BME280;41329;41.594;23.810;2022-11-28T13:47:48;95398.31;;;8.63;64.82
55466;BME280;41329;41.594;23.810;2022-11-28T13:58:23;95404.47;;;7.98;64.87
55466;BME280;41329;41.594;23.810;2022-11-28T14:03:29;95414.25;;;7.96;65.57
55466;BME280;41329;41.594;23.810;2022-11-28T14:05:57;95410.59;;;7.92;65.59
55466;BME280;41329;41.594;23.810;2022-11-28T14:08:31;95412.41;;;8.00;65.64
55466;BME280;41329;41.594;23.810;2022-11-28T14:11:17;95371.22;;;7.76;65.63
55466;BME280;41329;41.594;23.810;2022-11-28T14:13:55;95413.91;;;8.13;65.78
55466;BME280;41329;41.594;23.810;2022-11-28T14:22:18;95414.41;;;8.30;66.01
55466;BME280;41329;41.594;23.810;2022-11-28T14:27:16;95397.53;;;8.32;65.97
55466;BME280;41329;41.594;23.810;2022-11-28T14:29:48;95395.00;;;8.27;65.73
55466;BME280;41329;41.594;23.810;2022-11-28T14:32:35;95418.16;;;8.38;65.94
55466;BME280;41329;41.594;23.810;2022-11-28T14:35:02;95402.31;;;8.35;65.65
55466;BME280;41329;41.594;23.810;2022-11-28T14:37:51;95412.97;;;8.36;65.75
55466;BME280;41329;41.594;23.810;2022-11-28T14:48:41;95430.16;;;8.30;66.08
55466;BME280;41329;41.594;23.810;2022-11-28T14:56:56;95414.78;;;8.29;66.36
55466;BME280;41329;41.594;23.810;2022-11-28T14:59:35;95417.41;;;8.25;65.96
55466;BME280;41329;41.594;23.810;2022-11-28T15:12:22;95390.16;;;8.08;66.18
55466;BME280;41329;41.594;23.810;2022-11-28T15:14:53;95393.03;;;8.12;65.96
55466;BME280;41329;41.594;23.810;2022-11-28T15:17:24;95348.22;;;7.84;66.20
55466;BME280;41329;41.594;23.810;2022-11-28T15:19:53;95397.81;;;8.15;66.37
55466;BME280;41329;41.594;23.810;2022-11-28T15:22:39;95397.38;;;8.13;66.44
55466;BME280;41329;41.594;23.810;2022-11-28T15:25:32;95390.97;;;8.09;66.62
55466;BME280;41329;41.594;23.810;2022-11-28T15:28:14;95374.09;;;7.95;66.22
55466;BME280;41329;41.594;23.810;2022-11-28T15:30:46;95391.75;;;7.94;66.26
55466;BME280;41329;41.594;23.810;2022-11-28T15:33:13;95384.56;;;7.89;66.41
55466;BME280;41329;41.594;23.810;2022-11-28T15:35:48;95384.63;;;7.77;66.66
55466;BME280;41329;41.594;23.810;2022-11-28T15:38:17;95391.38;;;7.80;66.82
55466;BME280;41329;41.594;23.810;2022-11-28T15:40:48;95396.00;;;7.76;67.07
55466;BME280;41329;41.594;23.810;2022-11-28T15:43:14;95400.34;;;7.77;67.30
55466;BME280;41329;41.594;23.810;2022-11-28T15:45:40;95392.25;;;7.68;67.59
55466;BME280;41329;41.594;23.810;2022-11-28T15:50:49;95394.91;;;7.65;67.86
55466;BME280;41329;41.594;23.810;2022-11-28T15:53:18;95398.38;;;7.62;67.81
55466;BME280;41329;41.594;23.810;2022-11-28T15:55:44;95397.47;;;7.58;67.99
55466;BME280;41329;41.594;23.810;2022-11-28T15:58:21;95388.66;;;7.52;67.85
55466;BME280;41329;41.594;23.810;2022-11-28T16:01:04;95381.44;;;7.48;68.20
55466;BME280;41329;41.594;23.810;2022-11-28T16:03:33;95402.72;;;7.63;68.49
55466;BME280;41329;41.594;23.810;2022-11-28T16:06:01;95390.72;;;7.55;68.48
55466;BME280;41329;41.594;23.810;2022-11-28T16:10:54;95400.44;;;7.65;68.30
55466;BME280;41329;41.594;23.810;2022-11-28T16:13:20;95394.81;;;7.61;68.32
55466;BME280;41329;41.594;23.810;2022-11-28T16:15:50;95416.22;;;7.68;68.23
55466;BME280;41329;41.594;23.810;2022-11-28T16:18:17;95409.13;;;7.67;68.41
55466;BME280;41329;41.594;23.810;2022-11-28T16:20:43;95399.69;;;7.68;68.29